Time;durP1;ratioP1;P1;durP2;ratioP2;P2;SDS_P1;SDS_P2;PMS_P1;PMS_P2;Temp;Humidity;BMP_temperature;BMP_pressure;BME280_temperature;BME280_humidity;BME280_pressure;Samples;Min_cycle;Max_cycle;Signal;HPM_P1;HPM_P2
2021/08/13 00:00:54;;;;;;;;;;;21.30;66.10;;;;;;5034457;28;1289;-66
2021/08/13 00:03:20;;;;;;;;;;;21.30;66.10;;;;;;5034554;28;1910;-66
2021/08/13 00:05:46;;;;;;;;;;;21.30;66.00;;;;;;5034150;28;1201;-66
2021/08/13 00:08:12;;;;;;;;;;;21.30;66.00;;;;;;5032899;28;1138;-66
2021/08/13 00:10:37;;;;;;;;;;;21.30;66.00;;;;;;5034087;28;1273;-67
2021/08/13 00:13:03;;;;;;;;;;;21.30;66.00;;;;;;5033211;28;1040;-65
2021/08/13 00:15:28;;;;;;;;;;;21.30;66.00;;;;;;5033804;28;1128;-66
2021/08/13 00:17:54;;;;;;;;;;;21.30;66.00;;;;;;5034284;28;1064;-65
2021/08/13 00:20:20;;;;;;;;;;;21.30;65.90;;;;;;5033812;28;1343;-65
2021/08/13 00:22:46;;;;;;;;;;;21.30;65.90;;;;;;5034334;28;1684;-65
2021/08/13 00:25:11;;;;;;;;;;;21.30;65.90;;;;;;5042343;28;1906;-65
2021/08/13 00:27:37;;;;;;;;;;;21.30;65.90;;;;;;5044736;28;1111;-64
2021/08/13 00:30:03;;;;;;;;;;;21.30;65.90;;;;;;5033843;28;1444;-65
2021/08/13 00:32:28;;;;;;;;;;;21.30;65.90;;;;;;5033911;28;1191;-66
2021/08/13 00:34:54;;;;;;;;;;;21.30;65.90;;;;;;5049228;28;1054;-66
2021/08/13 00:37:19;;;;;;;;;;;21.30;65.90;;;;;;5053544;28;1070;-66
2021/08/13 00:39:44;;;;;;;;;;;21.30;65.90;;;;;;5053534;28;1289;-66
2021/08/13 00:42:10;;;;;;;;;;;21.30;66.00;;;;;;5053853;28;1051;-66
2021/08/13 00:44:35;;;;;;;;;;;21.30;66.00;;;;;;5053067;28;1937;-66
2021/08/13 00:47:01;;;;;;;;;;;21.30;66.00;;;;;;5053589;28;1082;-66
2021/08/13 00:49:26;;;;;;;;;;;21.30;66.00;;;;;;5053332;28;1254;-66
2021/08/13 00:51:52;;;;;;;;;;;21.30;66.00;;;;;;5047903;28;1138;-66
2021/08/13 00:54:19;;;;;;;;;;;21.30;65.80;;;;;;5033159;28;1432;-65
2021/08/13 00:56:45;;;;;;;;;;;21.30;65.70;;;;;;5033586;28;1043;-65
2021/08/13 00:59:10;;;;;;;;;;;21.30;65.70;;;;;;5033285;28;1295;-65
2021/08/13 01:01:36;;;;;;;;;;;21.30;65.70;;;;;;5032201;28;1142;-66
2021/08/13 01:04:02;;;;;;;;;;;21.30;65.80;;;;;;5032942;28;1949;-65
2021/08/13 01:06:27;;;;;;;;;;;21.30;65.70;;;;;;5032979;28;1087;-65
2021/08/13 01:08:52;;;;;;;;;;;21.30;65.70;;;;;;5033187;28;1096;-64
2021/08/13 01:11:20;;;;;;;;;;;21.30;65.80;;;;;;5031966;28;1319;-65
2021/08/13 01:14:04;;;;;;;;;;;21.30;65.80;;;;;;5031746;28;1072;-65
2021/08/13 01:16:30;;;;;;;;;;;21.30;65.80;;;;;;5044031;28;974;-65
2021/08/13 01:18:58;;;;;;;;;;;21.30;65.70;;;;;;5033789;28;1398;-64
2021/08/13 01:21:36;;;;;;;;;;;21.30;65.80;;;;;;5041082;23;3750;-71
2021/08/13 01:24:03;;;;;;;;;;;21.20;65.70;;;;;;5051333;28;1914;-72
2021/08/13 01:26:29;;;;;;;;;;;21.30;65.80;;;;;;5052523;28;1512;-71
2021/08/13 01:29:16;;;;;;;;;;;21.30;65.80;;;;;;5034907;28;1347;-71
2021/08/13 01:31:43;;;;;;;;;;;21.20;65.70;;;;;;5052588;28;1226;-72
2021/08/13 01:34:08;;;;;;;;;;;21.20;65.60;;;;;;5034096;28;1600;-72
2021/08/13 01:36:33;;;;;;;;;;;21.20;65.40;;;;;;5034798;28;1409;-71
2021/08/13 01:39:01;;;;;;;;;;;21.30;65.50;;;;;;5034779;28;1424;-71
2021/08/13 01:41:26;;;;;;;;;;;21.30;65.50;;;;;;5034882;28;1406;-71
2021/08/13 01:43:52;;;;;;;;;;;21.30;65.60;;;;;;5034395;28;1971;-71
2021/08/13 01:46:17;;;;;;;;;;;21.20;65.50;;;;;;5034358;28;1163;-72
2021/08/13 01:48:43;;;;;;;;;;;21.30;65.60;;;;;;5034869;28;792;-72
2021/08/13 01:51:14;;;;;;;;;;;21.20;65.60;;;;;;5018314;28;1271;-72
2021/08/13 01:53:39;;;;;;;;;;;21.30;65.70;;;;;;5026109;28;887;-72
2021/08/13 01:56:05;;;;;;;;;;;21.20;65.70;;;;;;5030300;28;1450;-71
2021/08/13 01:58:30;;;;;;;;;;;21.30;65.80;;;;;;5024963;28;808;-72
2021/08/13 02:00:56;;;;;;;;;;;21.20;65.70;;;;;;5034503;28;1275;-71
2021/08/13 02:03:21;;;;;;;;;;;21.30;65.70;;;;;;5051969;28;1949;-71
2021/08/13 02:05:47;;;;;;;;;;;21.30;65.70;;;;;;5051711;28;1473;-71
2021/08/13 02:08:13;;;;;;;;;;;21.30;65.70;;;;;;5034323;28;815;-71
2021/08/13 02:10:39;;;;;;;;;;;21.20;65.70;;;;;;5034547;28;1225;-71
2021/08/13 02:13:04;;;;;;;;;;;21.20;65.70;;;;;;5034478;28;1206;-71
2021/08/13 02:15:30;;;;;;;;;;;21.20;65.70;;;;;;5020092;28;1241;-71
2021/08/13 02:17:56;;;;;;;;;;;21.20;65.60;;;;;;5034278;28;1046;-71
2021/08/13 02:20:22;;;;;;;;;;;21.20;65.50;;;;;;5034128;28;1322;-71
2021/08/13 02:22:47;;;;;;;;;;;21.20;65.50;;;;;;5051767;28;1028;-71
2021/08/13 02:25:13;;;;;;;;;;;21.20;65.40;;;;;;5033517;28;1964;-72
2021/08/13 02:27:38;;;;;;;;;;;21.20;65.40;;;;;;5033852;28;1411;-72
2021/08/13 02:30:05;;;;;;;;;;;21.20;65.20;;;;;;5034293;28;1271;-72
2021/08/13 02:32:30;;;;;;;;;;;21.20;65.20;;;;;;5033091;28;1116;-71
2021/08/13 02:34:56;;;;;;;;;;;21.20;65.40;;;;;;5064679;28;1685;-71
2021/08/13 02:37:23;;;;;;;;;;;21.30;65.50;;;;;;5037114;28;1299;-71
2021/08/13 02:39:50;;;;;;;;;;;21.20;65.40;;;;;;5054988;28;1378;-71
2021/08/13 02:42:16;;;;;;;;;;;21.20;65.40;;;;;;5036783;28;1175;-71
2021/08/13 02:44:43;;;;;;;;;;;21.20;65.50;;;;;;5036434;28;1946;-71
2021/08/13 02:47:09;;;;;;;;;;;21.20;65.50;;;;;;5037178;28;1365;-71
2021/08/13 02:49:35;;;;;;;;;;;21.20;65.60;;;;;;5055496;28;1710;-71
2021/08/13 02:52:01;;;;;;;;;;;21.20;65.70;;;;;;5034598;28;1089;-71
2021/08/13 02:54:27;;;;;;;;;;;21.20;65.70;;;;;;5036539;28;1010;-71
2021/08/13 02:56:53;;;;;;;;;;;21.20;65.70;;;;;;5037161;28;1167;-71
2021/08/13 02:59:19;;;;;;;;;;;21.20;65.60;;;;;;5055143;28;1124;-71
2021/08/13 03:01:44;;;;;;;;;;;21.20;65.70;;;;;;5037278;28;1206;-71
2021/08/13 03:04:09;;;;;;;;;;;21.20;65.60;;;;;;5036709;28;1897;-71
2021/08/13 03:06:37;;;;;;;;;;;21.20;65.50;;;;;;5036781;28;1092;-71
2021/08/13 03:09:02;;;;;;;;;;;21.20;65.50;;;;;;5037805;28;861;-71
2021/08/13 03:11:28;;;;;;;;;;;21.20;65.40;;;;;;5037089;28;1287;-71
2021/08/13 03:13:53;;;;;;;;;;;21.20;65.20;;;;;;5036921;28;1081;-71
2021/08/13 03:16:19;;;;;;;;;;;21.20;65.10;;;;;;5036367;28;1228;-71
2021/08/13 03:18:44;;;;;;;;;;;21.20;65.10;;;;;;5036633;28;1092;-72
2021/08/13 03:21:10;;;;;;;;;;;21.20;65.10;;;;;;5054566;28;1309;-71
2021/08/13 03:23:38;;;;;;;;;;;21.20;65.10;;;;;;5020268;28;1898;-71
2021/08/13 03:26:04;;;;;;;;;;;21.20;65.10;;;;;;5035855;28;1143;-72
2021/08/13 03:28:29;;;;;;;;;;;21.20;65.00;;;;;;5054744;28;1095;-71
2021/08/13 03:30:55;;;;;;;;;;;21.20;65.00;;;;;;5036676;28;1213;-71
2021/08/13 03:33:20;;;;;;;;;;;21.20;65.00;;;;;;5036444;28;1212;-71
2021/08/13 03:35:46;;;;;;;;;;;21.20;65.00;;;;;;5036013;28;1061;-71
2021/08/13 03:38:11;;;;;;;;;;;21.20;64.90;;;;;;5036608;28;1045;-71
2021/08/13 03:40:36;;;;;;;;;;;21.20;64.90;;;;;;5036217;28;1279;-71
2021/08/13 03:43:02;;;;;;;;;;;21.20;64.80;;;;;;5054066;28;1111;-71
2021/08/13 03:45:28;;;;;;;;;;;21.20;64.90;;;;;;5053927;28;1950;-71
2021/08/13 03:47:53;;;;;;;;;;;21.20;65.00;;;;;;5036343;28;1171;-71
2021/08/13 03:50:18;;;;;;;;;;;21.20;64.90;;;;;;5053878;28;1260;-71
2021/08/13 03:52:44;;;;;;;;;;;21.20;64.90;;;;;;5043146;28;1119;-71
2021/08/13 03:55:12;;;;;;;;;;;21.20;64.90;;;;;;5035349;28;1077;-72
2021/08/13 03:57:38;;;;;;;;;;;21.20;65.00;;;;;;5054246;28;1076;-71
2021/08/13 04:00:04;;;;;;;;;;;21.20;65.00;;;;;;5053819;28;1197;-71
2021/08/13 04:02:30;;;;;;;;;;;21.20;65.10;;;;;;5053604;28;1152;-71
2021/08/13 04:04:55;;;;;;;;;;;21.20;65.10;;;;;;5053432;28;1898;-71
2021/08/13 04:07:20;;;;;;;;;;;21.20;65.10;;;;;;5035833;28;1481;-71
2021/08/13 04:09:46;;;;;;;;;;;21.20;65.20;;;;;;5053788;28;1218;-71
2021/08/13 04:12:11;;;;;;;;;;;21.20;65.20;;;;;;5053717;28;1186;-71
2021/08/13 04:14:37;;;;;;;;;;;21.20;65.10;;;;;;5053218;28;1072;-71
2021/08/13 04:17:02;;;;;;;;;;;21.20;65.00;;;;;;5036150;28;1120;-71
2021/08/13 04:19:28;;;;;;;;;;;21.20;65.00;;;;;;5053328;28;1103;-71
2021/08/13 04:21:53;;;;;;;;;;;21.20;64.80;;;;;;5053252;28;1157;-71
2021/08/13 04:24:18;;;;;;;;;;;21.20;64.90;;;;;;5052873;28;1953;-71
2021/08/13 04:26:44;;;;;;;;;;;21.20;64.80;;;;;;5053527;28;1160;-71
2021/08/13 04:29:09;;;;;;;;;;;21.20;64.80;;;;;;5053356;28;1068;-71
2021/08/13 04:31:35;;;;;;;;;;;21.20;64.70;;;;;;5053110;28;1209;-71
2021/08/13 04:34:00;;;;;;;;;;;21.20;64.70;;;;;;5034844;28;1442;-71
2021/08/13 04:36:27;;;;;;;;;;;21.10;64.60;;;;;;5053031;28;1103;-71
2021/08/13 04:38:52;;;;;;;;;;;21.20;64.60;;;;;;5035535;28;1081;-71
2021/08/13 04:41:18;;;;;;;;;;;21.20;64.60;;;;;;5052704;28;1682;-71
2021/08/13 04:43:43;;;;;;;;;;;21.20;64.70;;;;;;5052904;28;1953;-71
2021/08/13 04:46:09;;;;;;;;;;;21.20;64.60;;;;;;5052752;28;1124;-71
2021/08/13 04:48:34;;;;;;;;;;;21.20;64.70;;;;;;5053313;28;1092;-71
2021/08/13 04:51:00;;;;;;;;;;;21.20;64.70;;;;;;5052673;28;1469;-71
2021/08/13 04:53:25;;;;;;;;;;;21.20;64.60;;;;;;5041767;28;1190;-71
2021/08/13 04:55:50;;;;;;;;;;;21.20;64.80;;;;;;5052253;28;1080;-71
2021/08/13 04:58:16;;;;;;;;;;;21.20;65.00;;;;;;5052724;28;1146;-71
2021/08/13 05:00:43;;;;;;;;;;;21.20;64.60;;;;;;5052318;28;1387;-71
2021/08/13 05:03:08;;;;;;;;;;;21.20;64.70;;;;;;5052243;28;2106;-71
2021/08/13 05:05:33;;;;;;;;;;;21.20;64.70;;;;;;5051056;28;1968;-71
2021/08/13 05:07:59;;;;;;;;;;;21.20;64.70;;;;;;5034775;28;1167;-71
2021/08/13 05:10:24;;;;;;;;;;;21.20;64.60;;;;;;5052678;28;1209;-71
2021/08/13 05:12:50;;;;;;;;;;;21.20;64.70;;;;;;5052610;28;1004;-72
2021/08/13 05:15:16;;;;;;;;;;;21.20;64.80;;;;;;5052187;28;1064;-71
2021/08/13 05:17:41;;;;;;;;;;;21.20;64.70;;;;;;5034986;28;1108;-71
2021/08/13 05:20:07;;;;;;;;;;;21.10;64.60;;;;;;5034417;28;1298;-71
2021/08/13 05:22:34;;;;;;;;;;;21.20;64.60;;;;;;5034311;28;1171;-71
2021/08/13 05:25:00;;;;;;;;;;;21.20;64.70;;;;;;5051374;28;1973;-71
2021/08/13 05:27:26;;;;;;;;;;;21.10;64.70;;;;;;5052368;28;1033;-71
2021/08/13 05:29:51;;;;;;;;;;;21.10;64.70;;;;;;5052622;28;1211;-71
2021/08/13 05:32:16;;;;;;;;;;;21.20;64.80;;;;;;5052506;28;1092;-71
2021/08/13 05:34:42;;;;;;;;;;;21.20;64.90;;;;;;5051565;28;1068;-71
2021/08/13 05:37:07;;;;;;;;;;;21.20;65.00;;;;;;5051929;28;1076;-70
2021/08/13 05:39:33;;;;;;;;;;;21.10;65.10;;;;;;5052193;28;1136;-71
2021/08/13 05:41:58;;;;;;;;;;;21.20;65.00;;;;;;5052301;28;1256;-71
2021/08/13 05:44:24;;;;;;;;;;;21.20;65.00;;;;;;5051575;28;1901;-71
2021/08/13 05:46:49;;;;;;;;;;;21.10;65.00;;;;;;5052249;28;1057;-71
2021/08/13 05:49:14;;;;;;;;;;;21.20;65.00;;;;;;5052397;28;1064;-71
2021/08/13 05:51:40;;;;;;;;;;;21.10;65.10;;;;;;5047668;28;1237;-71
2021/08/13 05:54:05;;;;;;;;;;;21.10;65.10;;;;;;5045712;28;992;-71
2021/08/13 05:56:31;;;;;;;;;;;21.20;65.20;;;;;;5034506;28;1116;-70
2021/08/13 05:59:00;;;;;;;;;;;21.20;65.10;;;;;;5052612;28;1072;-71
2021/08/13 06:01:25;;;;;;;;;;;21.20;65.10;;;;;;5052429;28;1295;-70
2021/08/13 06:03:51;;;;;;;;;;;21.20;66.50;;;;;;5051940;28;1911;-70
2021/08/13 06:06:16;;;;;;;;;;;21.20;66.90;;;;;;5051417;28;1143;-71
2021/08/13 06:08:42;;;;;;;;;;;21.20;67.00;;;;;;5051807;28;1131;-71
2021/08/13 06:11:07;;;;;;;;;;;21.20;67.30;;;;;;5042259;28;1245;-71
2021/08/13 06:13:33;;;;;;;;;;;21.10;68.00;;;;;;5038160;28;1069;-71
2021/08/13 06:15:58;;;;;;;;;;;21.20;68.10;;;;;;5055645;28;835;-71
2021/08/13 06:18:24;;;;;;;;;;;21.10;68.00;;;;;;5056384;28;985;-71
2021/08/13 06:20:49;;;;;;;;;;;21.20;68.70;;;;;;5038030;28;1676;-71
2021/08/13 06:23:15;;;;;;;;;;;21.20;69.00;;;;;;5045473;28;1906;-68
2021/08/13 06:25:40;;;;;;;;;;;21.20;68.80;;;;;;5044718;28;1926;-68
2021/08/13 06:28:05;;;;;;;;;;;21.20;68.50;;;;;;5053283;28;1314;-68
2021/08/13 06:30:31;;;;;;;;;;;21.20;68.90;;;;;;5044781;28;1278;-69
2021/08/13 06:32:59;;;;;;;;;;;21.20;69.50;;;;;;5053325;28;1167;-69
2021/08/13 06:35:25;;;;;;;;;;;21.20;69.10;;;;;;5037944;28;1972;-69
2021/08/13 06:37:54;;;;;;;;;;;21.20;68.70;;;;;;5034788;28;1656;-69
2021/08/13 06:40:20;;;;;;;;;;;21.20;68.60;;;;;;5062030;28;1375;-69
2021/08/13 06:42:46;;;;;;;;;;;21.20;69.40;;;;;;5055072;28;1131;-70
2021/08/13 06:45:12;;;;;;;;;;;21.20;68.80;;;;;;5054872;28;1965;-69
2021/08/13 06:47:37;;;;;;;;;;;21.20;68.60;;;;;;5054326;28;1100;-71
2021/08/13 06:50:03;;;;;;;;;;;21.20;68.80;;;;;;5049955;28;1697;-71
2021/08/13 06:52:28;;;;;;;;;;;21.20;69.20;;;;;;5046804;28;1447;-70
2021/08/13 06:54:54;;;;;;;;;;;21.20;68.70;;;;;;5054062;28;1052;-71
2021/08/13 06:57:19;;;;;;;;;;;21.20;68.80;;;;;;5054512;28;1120;-70
2021/08/13 06:59:45;;;;;;;;;;;21.20;68.60;;;;;;5053494;28;1217;-70
2021/08/13 07:02:10;;;;;;;;;;;21.30;68.40;;;;;;5054771;28;1183;-70
2021/08/13 07:04:36;;;;;;;;;;;21.20;68.70;;;;;;5054335;28;1897;-70
2021/08/13 07:07:01;;;;;;;;;;;21.30;68.70;;;;;;5055118;28;1084;-70
2021/08/13 07:09:27;;;;;;;;;;;21.20;68.80;;;;;;5055522;28;1353;-71
2021/08/13 07:11:52;;;;;;;;;;;21.30;68.80;;;;;;5054278;28;1189;-71
2021/08/13 07:14:17;;;;;;;;;;;21.30;68.80;;;;;;5054262;28;1084;-70
2021/08/13 07:16:43;;;;;;;;;;;21.30;69.00;;;;;;5037269;28;1227;-70
2021/08/13 07:19:08;;;;;;;;;;;21.30;68.70;;;;;;5054382;28;1064;-70
2021/08/13 07:21:34;;;;;;;;;;;21.30;69.00;;;;;;5054278;28;1813;-71
2021/08/13 07:23:59;;;;;;;;;;;21.30;68.70;;;;;;5054813;28;1970;-71
2021/08/13 07:26:25;;;;;;;;;;;21.30;68.90;;;;;;5054873;28;1061;-70
2021/08/13 07:28:50;;;;;;;;;;;21.30;68.90;;;;;;5054976;28;1148;-70
2021/08/13 07:31:16;;;;;;;;;;;21.30;68.90;;;;;;5054131;28;1316;-71
2021/08/13 07:33:41;;;;;;;;;;;21.30;69.10;;;;;;5054438;28;1139;-70
2021/08/13 07:36:06;;;;;;;;;;;21.30;68.80;;;;;;5053519;28;1131;-71
2021/08/13 07:38:39;;;;;;;;;;;21.30;68.90;;;;;;5054871;28;1158;-71
2021/08/13 07:41:05;;;;;;;;;;;21.30;69.10;;;;;;5054173;28;1302;-71
2021/08/13 07:43:30;;;;;;;;;;;21.40;69.40;;;;;;5052651;28;1953;-71
2021/08/13 07:45:55;;;;;;;;;;;21.40;69.20;;;;;;5046792;28;1124;-70
2021/08/13 07:48:21;;;;;;;;;;;21.40;69.00;;;;;;5036272;28;1073;-71
2021/08/13 07:50:46;;;;;;;;;;;21.40;69.20;;;;;;5054014;28;1346;-71
2021/08/13 07:53:12;;;;;;;;;;;21.40;68.80;;;;;;5053653;28;1091;-70
2021/08/13 07:55:37;;;;;;;;;;;21.40;69.10;;;;;;5035485;28;1081;-71
2021/08/13 07:58:02;;;;;;;;;;;21.40;69.10;;;;;;5054386;28;1092;-71
2021/08/13 08:00:28;;;;;;;;;;;21.40;69.30;;;;;;5054172;28;1253;-71
2021/08/13 08:02:53;;;;;;;;;;;21.40;69.10;;;;;;5036050;28;1175;-71
2021/08/13 08:05:19;;;;;;;;;;;21.40;69.50;;;;;;5052572;28;1954;-71
2021/08/13 08:07:44;;;;;;;;;;;21.40;69.20;;;;;;5053908;28;1152;-71
2021/08/13 08:10:10;;;;;;;;;;;21.40;69.40;;;;;;5053963;28;1351;-71
2021/08/13 08:12:35;;;;;;;;;;;21.40;69.50;;;;;;5053651;28;1736;-71
2021/08/13 08:15:01;;;;;;;;;;;21.50;69.60;;;;;;5052932;28;1166;-71
2021/08/13 08:17:26;;;;;;;;;;;21.50;69.80;;;;;;5035898;28;1140;-71
2021/08/13 08:19:52;;;;;;;;;;;21.50;70.00;;;;;;5035625;28;1383;-71
2021/08/13 08:22:17;;;;;;;;;;;21.50;69.80;;;;;;5053609;28;1088;-71
2021/08/13 08:24:42;;;;;;;;;;;21.50;69.60;;;;;;5053538;28;1950;-70
2021/08/13 08:27:08;;;;;;;;;;;21.50;69.30;;;;;;5053381;28;1089;-70
2021/08/13 08:29:33;;;;;;;;;;;21.50;69.30;;;;;;5053571;28;1088;-71
2021/08/13 08:31:59;;;;;;;;;;;21.60;69.60;;;;;;5034969;28;1427;-70
2021/08/13 08:34:24;;;;;;;;;;;21.60;69.70;;;;;;5051761;28;1111;-70
2021/08/13 08:36:49;;;;;;;;;;;21.60;70.30;;;;;;5053407;28;1235;-71
2021/08/13 08:39:15;;;;;;;;;;;21.60;70.10;;;;;;5035181;28;1202;-70
2021/08/13 08:41:42;;;;;;;;;;;21.60;70.80;;;;;;5053050;28;1200;-70
2021/08/13 08:44:07;;;;;;;;;;;21.60;70.50;;;;;;5051360;28;1975;-70
2021/08/13 08:46:33;;;;;;;;;;;21.60;70.50;;;;;;5053234;28;1092;-71
2021/08/13 08:48:58;;;;;;;;;;;21.60;71.10;;;;;;5035363;28;1084;-70
2021/08/13 08:51:24;;;;;;;;;;;21.60;72.00;;;;;;5034931;28;1293;-70
2021/08/13 08:53:53;;;;;;;;;;;21.60;71.60;;;;;;5053071;28;1131;-70
2021/08/13 08:56:18;;;;;;;;;;;21.60;73.00;;;;;;5034345;28;1096;-71
2021/08/13 08:58:44;;;;;;;;;;;21.70;74.30;;;;;;5034968;28;1234;-71
2021/08/13 09:01:11;;;;;;;;;;;21.70;73.30;;;;;;5034838;28;1215;-72
2021/08/13 09:03:36;;;;;;;;;;;21.70;72.50;;;;;;5034469;28;1886;-72
2021/08/13 09:06:01;;;;;;;;;;;21.70;72.50;;;;;;5034350;28;1056;-71
2021/08/13 09:08:27;;;;;;;;;;;21.80;71.30;;;;;;5034858;28;1324;-71
2021/08/13 09:10:52;;;;;;;;;;;21.70;71.60;;;;;;5034797;28;1366;-72
2021/08/13 09:13:21;;;;;;;;;;;21.70;72.00;;;;;;5052610;28;1174;-72
2021/08/13 09:15:46;;;;;;;;;;;21.70;71.90;;;;;;5052107;28;1123;-73
2021/08/13 09:18:12;;;;;;;;;;;21.70;71.60;;;;;;5051830;28;1041;-72
2021/08/13 09:20:38;;;;;;;;;;;21.80;70.90;;;;;;5052302;28;1270;-71
2021/08/13 09:23:04;;;;;;;;;;;21.80;70.50;;;;;;5052554;28;1068;-71
2021/08/13 09:25:29;;;;;;;;;;;21.80;70.30;;;;;;5051915;28;1910;-72
2021/08/13 09:27:55;;;;;;;;;;;21.80;71.30;;;;;;5034583;28;1199;-72
2021/08/13 09:30:20;;;;;;;;;;;21.80;71.20;;;;;;5052645;28;1361;-72
2021/08/13 09:33:08;;;;;;;;;;;21.90;71.40;;;;;;5052192;28;1230;-71
2021/08/13 09:35:36;;;;;;;;;;;21.90;71.10;;;;;;5051530;28;1064;-71
2021/08/13 09:38:02;;;;;;;;;;;21.90;70.90;;;;;;5034511;28;1151;-72
2021/08/13 09:40:29;;;;;;;;;;;21.90;70.60;;;;;;5034210;28;1223;-72
2021/08/13 09:43:00;;;;;;;;;;;21.90;70.30;;;;;;5034498;28;1473;-72
2021/08/13 09:45:25;;;;;;;;;;;21.90;70.50;;;;;;5049668;28;1977;-71
2021/08/13 09:47:50;;;;;;;;;;;21.90;69.90;;;;;;5034432;28;1072;-71
2021/08/13 09:50:16;;;;;;;;;;;21.90;69.60;;;;;;5052434;28;1255;-72
2021/08/13 09:52:42;;;;;;;;;;;21.90;69.30;;;;;;5052120;28;1080;-73
2021/08/13 09:55:13;;;;;;;;;;;21.90;69.90;;;;;;5052068;28;1088;-72
2021/08/13 09:57:42;;;;;;;;;;;21.90;69.10;;;;;;5052364;28;1065;-73
2021/08/13 10:00:09;;;;;;;;;;;21.90;69.20;;;;;;5034353;28;1591;-73
2021/08/13 10:02:40;;;;;;;;;;;22.00;69.10;;;;;;5034651;28;1072;-72
2021/08/13 10:05:21;;;;;;;;;;;21.90;69.00;;;;;;5051393;28;2004;-71
2021/08/13 10:07:51;;;;;;;;;;;22.00;69.00;;;;;;5034417;28;1060;-72
2021/08/13 10:10:16;;;;;;;;;;;21.90;69.00;;;;;;5051938;28;1352;-72
2021/08/13 10:12:45;;;;;;;;;;;22.00;69.00;;;;;;5034198;28;1077;-72
2021/08/13 10:15:11;;;;;;;;;;;22.00;69.20;;;;;;5026161;28;1176;-72
2021/08/13 10:17:37;;;;;;;;;;;22.00;68.90;;;;;;5050626;28;1130;-72
2021/08/13 10:20:02;;;;;;;;;;;22.00;68.80;;;;;;5032832;28;1417;-72
2021/08/13 10:22:28;;;;;;;;;;;22.10;69.20;;;;;;5043959;28;1090;-71
2021/08/13 10:24:53;;;;;;;;;;;22.10;69.20;;;;;;5030719;28;1914;-72
2021/08/13 10:27:19;;;;;;;;;;;22.10;69.10;;;;;;5026994;28;1101;-72
2021/08/13 10:29:47;;;;;;;;;;;22.10;69.00;;;;;;5051760;28;1280;-71
2021/08/13 10:32:13;;;;;;;;;;;22.10;68.90;;;;;;5033660;28;1507;-72
2021/08/13 10:34:38;;;;;;;;;;;22.10;68.80;;;;;;5051726;28;1131;-72
2021/08/13 10:37:11;;;;;;;;;;;22.10;68.80;;;;;;5033631;28;1092;-72
2021/08/13 10:39:36;;;;;;;;;;;22.10;68.60;;;;;;5014242;28;1204;-72
2021/08/13 10:42:02;;;;;;;;;;;22.20;68.40;;;;;;5028442;28;1117;-72
2021/08/13 10:44:28;;;;;;;;;;;22.20;68.20;;;;;;5033403;28;1946;-73
2021/08/13 10:46:54;;;;;;;;;;;22.20;67.80;;;;;;5033835;28;1089;-71
2021/08/13 10:49:20;;;;;;;;;;;22.30;67.70;;;;;;5034495;28;1089;-72
2021/08/13 10:51:45;;;;;;;;;;;22.20;67.80;;;;;;5051135;28;1203;-72
2021/08/13 10:54:14;;;;;;;;;;;22.20;68.10;;;;;;5051090;28;1061;-72
2021/08/13 10:56:43;;;;;;;;;;;22.20;68.40;;;;;;5035614;28;1147;-71
2021/08/13 10:59:08;;;;;;;;;;;22.20;68.70;;;;;;5055153;28;1119;-72
2021/08/13 11:01:34;;;;;;;;;;;22.30;68.90;;;;;;5055095;28;1265;-73
2021/08/13 11:03:59;;;;;;;;;;;22.20;69.10;;;;;;5037049;28;1906;-73
2021/08/13 11:06:36;;;;;;;;;;;22.20;69.30;;;;;;5051697;28;1865;-74
2021/08/13 11:09:02;;;;;;;;;;;22.20;69.30;;;;;;5047110;28;1304;-74
2021/08/13 11:11:48;;;;;;;;;;;22.30;69.20;;;;;;5046783;28;1270;-73
2021/08/13 11:14:23;;;;;;;;;;;22.20;69.00;;;;;;5045756;28;1147;-73
2021/08/13 11:16:48;;;;;;;;;;;22.30;69.40;;;;;;5053071;28;1103;-73
2021/08/13 11:19:14;;;;;;;;;;;22.30;69.40;;;;;;5030618;28;1124;-73
2021/08/13 11:21:40;;;;;;;;;;;22.30;70.10;;;;;;5036536;28;1209;-74
2021/08/13 11:24:07;;;;;;;;;;;22.20;70.20;;;;;;5054796;28;1902;-73
2021/08/13 11:26:47;;;;;;;;;;;22.30;70.60;;;;;;5055072;28;1040;-73
2021/08/13 11:29:34;;;;;;;;;;;22.30;70.40;;;;;;5054870;28;1135;-73
2021/08/13 11:32:16;;;;;;;;;;;22.30;70.90;;;;;;5054671;28;1322;-73
2021/08/13 11:34:43;;;;;;;;;;;22.30;70.60;;;;;;5053780;28;1095;-72
2021/08/13 11:37:08;;;;;;;;;;;22.30;70.30;;;;;;5054339;28;1081;-72
2021/08/13 11:39:37;;;;;;;;;;;22.30;69.60;;;;;;5054768;28;1111;-72
2021/08/13 11:42:08;;;;;;;;;;;22.40;68.40;;;;;;5054216;28;1093;-72
2021/08/13 11:44:34;;;;;;;;;;;22.40;68.20;;;;;;5051988;28;1910;-71
2021/08/13 11:47:00;;;;;;;;;;;22.40;68.10;;;;;;5054125;28;1100;-72
2021/08/13 11:49:26;;;;;;;;;;;22.40;67.80;;;;;;5054478;28;1138;-72
2021/08/13 11:51:51;;;;;;;;;;;22.40;68.00;;;;;;5053967;28;1184;-72
2021/08/13 11:54:23;;;;;;;;;;;22.40;67.20;;;;;;5035545;28;1132;-71
2021/08/13 11:56:48;;;;;;;;;;;22.50;67.10;;;;;;5036135;28;1100;-72
2021/08/13 11:59:14;;;;;;;;;;;22.50;67.40;;;;;;5036211;28;1077;-71
2021/08/13 12:01:47;;;;;;;;;;;22.40;67.50;;;;;;5036146;28;1179;-72
2021/08/13 12:04:19;;;;;;;;;;;22.40;67.50;;;;;;5035738;28;1898;-72
2021/08/13 12:07:00;;;;;;;;;;;22.30;67.50;;;;;;5053372;28;1076;-71
2021/08/13 12:09:39;;;;;;;;;;;22.40;67.10;;;;;;5036509;28;1025;-72
2021/08/13 12:12:05;;;;;;;;;;;22.30;67.30;;;;;;5054233;28;1065;-71
2021/08/13 12:14:31;;;;;;;;;;;22.30;67.60;;;;;;5053026;28;1300;-72
2021/08/13 12:16:56;;;;;;;;;;;22.30;67.90;;;;;;5035958;28;1077;-71
2021/08/13 12:19:22;;;;;;;;;;;22.30;67.90;;;;;;5053700;28;1100;-72
2021/08/13 12:21:57;;;;;;;;;;;22.30;67.80;;;;;;5053214;28;1260;-71
2021/08/13 12:24:35;;;;;;;;;;;22.30;67.00;;;;;;5053646;28;1986;-72
2021/08/13 12:27:01;;;;;;;;;;;22.40;67.10;;;;;;5053829;28;1159;-72
2021/08/13 12:29:27;;;;;;;;;;;22.40;66.80;;;;;;5053583;28;1092;-72
2021/08/13 12:31:56;;;;;;;;;;;22.30;67.90;;;;;;5034756;28;1315;-72
2021/08/13 12:34:22;;;;;;;;;;;22.40;67.40;;;;;;5035191;28;1210;-72
2021/08/13 12:36:59;;;;;;;;;;;22.40;67.90;;;;;;5018972;28;1352;-72
2021/08/13 12:39:25;;;;;;;;;;;22.40;68.10;;;;;;5053327;28;1128;-72
2021/08/13 12:41:50;;;;;;;;;;;22.40;68.00;;;;;;5035113;28;1211;-72
2021/08/13 12:44:16;;;;;;;;;;;22.30;67.90;;;;;;5050291;28;1902;-72
2021/08/13 12:46:42;;;;;;;;;;;22.30;68.70;;;;;;5052942;28;1056;-72
2021/08/13 12:49:08;;;;;;;;;;;22.30;68.10;;;;;;5035677;28;966;-72
2021/08/13 12:51:33;;;;;;;;;;;22.40;68.70;;;;;;5034912;28;1281;-72
2021/08/13 12:53:59;;;;;;;;;;;22.40;67.50;;;;;;5035082;28;1104;-72
2021/08/13 12:56:24;;;;;;;;;;;22.40;66.90;;;;;;5053127;28;1068;-73
2021/08/13 12:58:49;;;;;;;;;;;22.40;67.00;;;;;;5034943;28;1120;-74
2021/08/13 13:01:25;;;;;;;;;;;22.50;66.40;;;;;;5052638;28;1183;-74
2021/08/13 13:04:06;;;;;;;;;;;22.50;67.20;;;;;;5052701;28;1941;-73
2021/08/13 13:06:32;;;;;;;;;;;22.50;66.80;;;;;;5052834;28;1144;-74
2021/08/13 13:08:57;;;;;;;;;;;22.50;67.10;;;;;;5054167;28;1080;-73
2021/08/13 13:11:23;;;;;;;;;;;22.50;67.40;;;;;;5034579;28;1385;-75
2021/08/13 13:13:49;;;;;;;;;;;22.40;67.50;;;;;;5035085;28;1124;-74
2021/08/13 13:16:15;;;;;;;;;;;22.40;67.90;;;;;;5034623;28;1195;-75
2021/08/13 13:18:40;;;;;;;;;;;22.40;68.10;;;;;;5034646;28;1315;-73
2021/08/13 13:21:42;;;;;;;;;;;22.40;68.10;;;;;;5077372;22;2075;-65
2021/08/13 13:24:07;;;;;;;;;;;22.40;68.40;;;;;;5048699;28;1979;-63
2021/08/13 13:26:33;;;;;;;;;;;22.40;69.00;;;;;;5041600;28;1363;-63
2021/08/13 13:29:07;;;;;;;;;;;22.40;69.00;;;;;;5052694;28;1135;-63
2021/08/13 13:31:38;;;;;;;;;;;22.40;68.90;;;;;;5044590;28;1308;-63
2021/08/13 13:34:04;;;;;;;;;;;22.40;68.90;;;;;;5045872;28;1092;-63
2021/08/13 13:36:29;;;;;;;;;;;22.40;69.00;;;;;;5051316;28;1846;-63
2021/08/13 13:38:56;;;;;;;;;;;22.40;69.20;;;;;;5039311;28;1169;-63
2021/08/13 13:41:21;;;;;;;;;;;22.40;70.20;;;;;;5052653;28;1217;-64
2021/08/13 13:43:47;;;;;;;;;;;22.40;70.30;;;;;;5049486;28;1898;-63
2021/08/13 13:46:12;;;;;;;;;;;22.40;70.30;;;;;;5052552;28;1146;-64
2021/08/13 13:48:40;;;;;;;;;;;22.40;70.40;;;;;;5052630;28;1115;-64
2021/08/13 13:51:05;;;;;;;;;;;22.40;70.50;;;;;;5052609;28;1181;-63
2021/08/13 13:53:31;;;;;;;;;;;22.40;70.10;;;;;;5052630;28;1099;-64
2021/08/13 13:55:56;;;;;;;;;;;22.40;70.20;;;;;;5052335;28;1127;-63
2021/08/13 13:58:21;;;;;;;;;;;22.40;70.20;;;;;;5049868;28;1075;-63
2021/08/13 14:00:47;;;;;;;;;;;22.40;70.10;;;;;;5052857;28;1146;-63
2021/08/13 14:03:13;;;;;;;;;;;22.30;70.00;;;;;;5052522;28;1284;-64
2021/08/13 14:05:38;;;;;;;;;;;22.40;71.10;;;;;;5052130;28;1948;-65
2021/08/13 14:08:04;;;;;;;;;;;22.40;71.10;;;;;;5052509;28;1154;-63
2021/08/13 14:10:29;;;;;;;;;;;22.40;71.10;;;;;;5052577;28;1123;-63
2021/08/13 14:12:59;;;;;;;;;;;22.50;70.80;;;;;;5037796;28;1204;-64
2021/08/13 14:15:24;;;;;;;;;;;22.50;72.00;;;;;;5047238;28;1095;-64
2021/08/13 14:17:50;;;;;;;;;;;22.50;71.90;;;;;;5047600;28;1064;-63
2021/08/13 14:20:16;;;;;;;;;;;22.50;71.90;;;;;;5052307;28;1138;-64
2021/08/13 14:22:41;;;;;;;;;;;22.50;71.50;;;;;;5037448;28;1332;-63
2021/08/13 14:25:08;;;;;;;;;;;22.50;71.90;;;;;;5052070;28;1905;-63
2021/08/13 14:27:33;;;;;;;;;;;22.50;71.80;;;;;;5049273;28;1191;-64